Time;durP1;ratioP1;P1;durP2;ratioP2;P2;SDS_P1;SDS_P2;PMS_P1;PMS_P2;Temp;Humidity;BMP_temperature;BMP_pressure;BME280_temperature;BME280_humidity;BME280_pressure;Samples;Min_cycle;Max_cycle;Signal;HPM_P1;HPM_P2
2021/11/01 00:01:30;;;;;;;;;3.00;1.50;;;;;19.39;47.15;99800.94;4991107;28;52173;-44
2021/11/01 00:04:02;;;;;;;;;2.00;2.00;;;;;19.39;47.20;99787.22;4990819;28;50947;-46
2021/11/01 00:06:27;;;;;;;;;2.50;2.25;;;;;19.40;47.26;99796.28;4990853;28;51239;-43
2021/11/01 00:08:52;;;;;;;;;2.50;2.50;;;;;19.39;47.05;99795.44;4991103;28;51151;-43
2021/11/01 00:11:18;;;;;;;;;2.00;2.00;;;;;19.39;47.10;99789.94;4990964;28;51717;-45
2021/11/01 00:13:43;;;;;;;;;2.00;1.00;;;;;19.39;47.01;99797.34;4990518;28;51157;-43
2021/11/01 00:16:09;;;;;;;;;2.00;2.00;;;;;19.39;47.29;99786.38;4991059;27;51074;-44
2021/11/01 00:18:34;;;;;;;;;2.75;1.50;;;;;19.38;47.15;99784.69;4990869;28;51207;-45
2021/11/01 00:20:59;;;;;;;;;1.25;1.25;;;;;19.39;46.90;99784.47;4993115;28;50930;-48
2021/11/01 00:23:25;;;;;;;;;3.00;1.00;;;;;19.38;47.33;99796.50;4994487;28;51032;-47
2021/11/01 00:25:51;;;;;;;;;1.00;1.00;;;;;19.37;47.01;99788.50;4994686;28;51075;-47
2021/11/01 00:28:16;;;;;;;;;2.25;1.00;;;;;19.37;47.30;99778.34;5077458;27;51076;-46
2021/11/01 00:30:42;;;;;;;;;2.75;2.00;;;;;19.37;47.29;99781.09;5077048;27;51054;-47
2021/11/01 00:33:07;;;;;;;;;3.25;2.00;;;;;19.37;47.17;99777.50;5077336;27;50984;-49
2021/11/01 00:35:33;;;;;;;;;2.00;1.00;;;;;19.37;46.93;99781.09;5077490;27;51428;-49
2021/11/01 00:37:58;;;;;;;;;3.00;2.50;;;;;19.37;47.33;99761.88;5077876;27;51117;-46
2021/11/01 00:40:24;;;;;;;;;2.50;1.25;;;;;19.36;47.33;99776.69;5077233;27;51027;-47
2021/11/01 00:42:49;;;;;;;;;2.00;2.00;;;;;19.35;47.25;99758.53;5077155;27;51055;-48
2021/11/01 00:45:14;;;;;;;;;1.00;0.00;;;;;19.36;47.01;99762.94;5077721;27;51570;-48
2021/11/01 00:47:40;;;;;;;;;2.25;2.25;;;;;19.34;47.02;99759.63;5077582;27;50951;-46
2021/11/01 00:50:06;;;;;;;;;2.00;0.75;;;;;19.35;47.03;99743.97;5076978;27;51742;-43
2021/11/01 00:52:32;;;;;;;;;3.00;1.50;;;;;19.34;47.00;99754.13;5077209;27;51014;-46
2021/11/01 00:55:06;;;;;;;;;3.00;1.25;;;;;19.34;46.97;99745.88;5077285;27;51037;-45
2021/11/01 00:57:31;;;;;;;;;2.00;2.00;;;;;19.35;47.27;99733.00;5077580;27;51044;-46
2021/11/01 00:59:59;;;;;;;;;1.00;1.00;;;;;19.33;47.22;99739.56;5077219;28;51594;-49
2021/11/01 01:02:27;;;;;;;;;2.50;2.50;;;;;19.33;47.02;99738.72;5077443;27;51037;-46
2021/11/01 01:04:52;;;;;;;;;2.00;0.25;;;;;19.33;47.28;99735.97;5077182;27;51094;-47
2021/11/01 01:07:18;;;;;;;;;1.75;1.75;;;;;19.32;46.96;99735.16;5077394;27;50932;-49
2021/11/01 01:09:43;;;;;;;;;3.50;2.50;;;;;19.32;46.97;99723.31;5077192;27;50945;-47
2021/11/01 01:12:09;;;;;;;;;1.50;1.00;;;;;19.32;47.21;99735.16;5076900;27;50958;-49
2021/11/01 01:14:42;;;;;;;;;3.50;1.25;;;;;19.31;47.07;99730.72;5077285;27;50972;-47
2021/11/01 01:17:07;;;;;;;;;0.50;0.50;;;;;19.31;47.17;99733.47;5077085;27;50971;-49
2021/11/01 01:19:45;;;;;;;;;2.00;1.25;;;;;19.31;47.06;99738.13;5076703;27;51808;-47
2021/11/01 01:22:19;;;;;;;;;1.25;1.25;;;;;19.31;47.23;99725.25;5077162;27;51114;-49
2021/11/01 01:24:45;;;;;;;;;2.75;2.75;;;;;19.31;47.07;99728.00;5077568;27;51390;-49
2021/11/01 01:27:11;;;;;;;;;4.75;1.75;;;;;19.31;47.21;99711.50;5030075;27;51076;-47
2021/11/01 01:29:36;;;;;;;;;1.25;0.75;;;;;19.32;47.05;99712.34;4993789;28;51720;-45
2021/11/01 01:32:02;;;;;;;;;1.00;1.00;;;;;19.31;46.96;99706.03;4993674;28;51176;-46
2021/11/01 01:34:27;;;;;;;;;2.00;0.75;;;;;19.31;47.14;99714.25;4993527;28;51205;-46
2021/11/01 01:36:52;;;;;;;;;1.00;1.00;;;;;19.30;47.27;99720.00;4994218;28;51259;-49
2021/11/01 01:39:18;;;;;;;;;2.00;1.00;;;;;19.31;46.87;99718.91;4993673;28;51028;-46
2021/11/01 01:41:45;;;;;;;;;3.00;1.00;;;;;19.31;47.12;99718.91;4993680;28;51089;-47
2021/11/01 01:44:12;;;;;;;;;1.50;1.00;;;;;19.30;47.22;99714.50;4993614;28;51180;-48
2021/11/01 01:46:37;;;;;;;;;1.25;0.75;;;;;19.29;46.96;99716.41;4994018;28;51266;-47
2021/11/01 01:49:03;;;;;;;;;4.00;2.25;;;;;19.29;47.09;99713.66;4993126;28;50966;-48
2021/11/01 01:51:30;;;;;;;;;2.50;0.50;;;;;19.29;46.83;99707.34;4993648;28;51103;-46
2021/11/01 01:53:57;;;;;;;;;0.75;0.75;;;;;19.29;47.24;99707.34;4993866;28;51151;-47
2021/11/01 01:56:25;;;;;;;;;1.00;1.00;;;;;19.29;47.26;99701.84;4993908;28;51012;-44
2021/11/01 01:58:56;;;;;;;;;0.25;0.25;;;;;19.29;46.90;99701.84;4993168;28;52752;-47
2021/11/01 02:01:22;;;;;;;;;1.75;0.50;;;;;19.28;46.92;99697.44;4993523;28;51319;-48
2021/11/01 02:03:50;;;;;;;;;1.00;1.00;;;;;19.29;47.05;99705.44;4993391;28;51111;-45
2021/11/01 02:06:27;;;;;;;;;1.00;1.00;;;;;19.28;46.98;99697.44;4993841;28;51137;-46
2021/11/01 02:09:27;;;;;;;;;2.00;2.00;;;;;19.27;47.11;99696.59;4993051;28;52159;-47
2021/11/01 02:12:05;;;;;;;;;3.00;1.50;;;;;19.27;47.04;99701.25;5003721;28;51020;-50
2021/11/01 02:14:48;;;;;;;;;2.00;1.00;;;;;19.27;46.97;99703.97;4993408;28;50891;-46
2021/11/01 02:17:22;;;;;;;;;2.00;0.00;;;;;19.27;47.25;99701.25;4993721;28;51199;-45
2021/11/01 02:19:51;;;;;;;;;1.25;1.25;;;;;19.25;47.20;99687.75;4992719;28;51096;-49
2021/11/01 02:22:22;;;;;;;;;1.00;1.00;;;;;19.27;46.88;99693.84;4993265;28;51099;-48
2021/11/01 02:25:16;;;;;;;;;2.00;1.00;;;;;19.26;46.91;99689.41;4993384;28;51101;-49
2021/11/01 02:27:44;;;;;;;;;0.25;0.25;;;;;19.26;47.10;99703.16;5070458;28;51040;-47
2021/11/01 02:30:11;;;;;;;;;1.50;1.50;;;;;19.26;47.00;99705.91;5075956;27;51717;-43
2021/11/01 02:32:41;;;;;;;;;0.50;0.50;;;;;19.25;46.80;99709.72;5075734;27;51056;-43
2021/11/01 02:35:07;;;;;;;;;1.00;1.00;;;;;19.26;47.17;99713.31;5075887;28;51000;-44
2021/11/01 02:37:37;;;;;;;;;0.50;0.50;;;;;19.25;46.96;99704.22;5076060;27;51164;-43
2021/11/01 02:40:03;;;;;;;;;3.00;1.00;;;;;19.24;46.86;99701.72;5075701;27;50937;-47
2021/11/01 02:42:29;;;;;;;;;1.00;1.00;;;;;19.25;47.04;99704.22;5075078;27;51030;-47
2021/11/01 02:45:10;;;;;;;;;1.50;1.50;;;;;19.25;47.01;99709.72;5075860;27;51128;-46
2021/11/01 02:47:36;;;;;;;;;2.00;2.00;;;;;19.25;46.91;99708.88;5075913;27;51293;-45
2021/11/01 02:50:07;;;;;;;;;2.00;2.00;;;;;19.25;47.04;99708.88;5075456;27;51967;-48
2021/11/01 02:52:33;;;;;;;;;2.00;1.25;;;;;19.24;47.19;99708.06;5075798;27;51081;-48
2021/11/01 02:55:01;;;;;;;;;1.00;0.75;;;;;19.24;47.21;99704.47;5076022;28;51124;-47
2021/11/01 02:57:27;;;;;;;;;1.75;1.00;;;;;19.24;46.99;99712.72;5075861;27;50980;-47
2021/11/01 02:59:52;;;;;;;;;0.00;0.00;;;;;19.24;46.89;99704.47;5075372;27;51404;-44
2021/11/01 03:02:18;;;;;;;;;0.50;0.50;;;;;19.24;46.91;99708.06;5075697;27;51077;-46
2021/11/01 03:04:44;;;;;;;;;1.25;1.25;;;;;19.24;46.90;99710.81;5075475;27;51064;-46
2021/11/01 03:07:11;;;;;;;;;1.00;1.00;;;;;19.25;47.22;99711.63;5076082;27;51369;-48
2021/11/01 03:09:39;;;;;;;;;0.00;0.00;;;;;19.23;47.02;99705.56;5075304;27;51015;-49
2021/11/01 03:12:08;;;;;;;;;2.00;0.75;;;;;19.24;46.88;99707.22;5075584;27;51282;-43
2021/11/01 03:14:42;;;;;;;;;0.75;0.75;;;;;19.22;46.96;99690.16;5075696;27;51242;-46
2021/11/01 03:17:12;;;;;;;;;0.50;0.50;;;;;19.23;47.13;99691.81;5074440;28;51851;-43
2021/11/01 03:19:40;;;;;;;;;1.00;1.00;;;;;19.22;46.97;99695.66;5074866;27;50981;-46
2021/11/01 03:22:06;;;;;;;;;1.00;1.00;;;;;19.22;46.89;99701.97;5075540;27;51104;-42
2021/11/01 03:24:39;;;;;;;;;0.50;0.50;;;;;19.21;46.78;99697.56;5075733;27;51167;-42
2021/11/01 03:27:07;;;;;;;;;0.25;0.00;;;;;19.22;46.88;99712.13;5032065;28;50966;-43
2021/11/01 03:29:34;;;;;;;;;2.75;0.75;;;;;19.22;46.93;99704.72;4992223;28;51888;-48
2021/11/01 03:32:03;;;;;;;;;3.00;1.00;;;;;19.21;47.02;99714.03;4992442;28;51096;-45
2021/11/01 03:34:29;;;;;;;;;0.00;0.00;;;;;19.20;46.97;99717.03;4991989;28;51161;-43
2021/11/01 03:36:59;;;;;;;;;1.00;0.75;;;;;19.20;46.75;99717.84;4992579;28;50879;-44
2021/11/01 03:39:25;;;;;;;;;1.00;0.00;;;;;19.22;46.87;99714.88;4992194;28;51877;-42
2021/11/01 03:41:51;;;;;;;;;0.50;0.00;;;;;19.20;47.08;99720.59;4991963;28;51344;-45
2021/11/01 03:44:27;;;;;;;;;1.00;1.00;;;;;19.20;46.80;99734.34;4991940;28;51082;-42
2021/11/01 03:46:59;;;;;;;;;0.50;0.00;;;;;19.19;46.86;99718.94;4991879;28;51161;-47
2021/11/01 03:49:28;;;;;;;;;0.50;0.00;;;;;19.20;46.71;99722.53;4991408;27;51217;-44
2021/11/01 03:52:11;;;;;;;;;0.25;0.25;;;;;19.20;47.04;99711.53;4991980;28;51040;-44
2021/11/01 03:54:38;;;;;;;;;0.00;0.00;;;;;19.20;46.74;99728.00;4992578;28;51044;-49
2021/11/01 03:57:06;;;;;;;;;0.75;0.75;;;;;19.19;46.82;99720.84;4995293;28;51417;-48
2021/11/01 03:59:33;;;;;;;;;1.00;0.00;;;;;19.19;46.83;99727.19;4994889;28;51199;-51
2021/11/01 04:01:58;;;;;;;;;1.00;1.00;;;;;19.18;47.11;99725.50;4993473;27;51118;-45
2021/11/01 04:04:23;;;;;;;;;0.00;0.00;;;;;19.18;46.92;99728.25;4994918;28;50992;-48
2021/11/01 04:06:49;;;;;;;;;0.00;0.00;;;;;19.18;46.81;99741.16;4995272;28;50967;-51
2021/11/01 04:09:16;;;;;;;;;0.00;0.00;;;;;19.17;46.68;99739.44;4994982;28;51118;-48
2021/11/01 04:11:44;;;;;;;;;1.00;0.00;;;;;19.19;46.66;99742.81;4995162;28;51209;-47
2021/11/01 04:14:17;;;;;;;;;1.25;0.25;;;;;19.19;46.83;99748.31;4994985;28;51146;-45
2021/11/01 04:16:47;;;;;;;;;1.75;0.75;;;;;19.18;47.00;99747.47;4995137;28;50958;-49
2021/11/01 04:21:45;;;;;;;;;0.00;0.00;;;;;19.18;46.98;99738.41;4995084;28;51504;-47
2021/11/01 04:24:11;;;;;;;;;1.75;0.00;;;;;19.18;46.77;99746.63;4994959;28;50962;-48
2021/11/01 04:26:36;;;;;;;;;0.00;0.00;;;;;19.17;47.01;99745.78;5022603;28;51174;-47
2021/11/01 04:29:06;;;;;;;;;0.50;0.00;;;;;19.16;47.05;99744.09;5077968;27;51785;-46
2021/11/01 04:31:34;;;;;;;;;0.00;0.00;;;;;19.15;46.97;99742.44;5078157;27;51260;-47
2021/11/01 04:34:11;;;;;;;;;0.00;0.00;;;;;19.15;46.94;99738.84;5077856;27;50907;-47
2021/11/01 04:36:38;;;;;;;;;0.75;0.75;;;;;19.14;47.00;99732.53;5078177;27;50956;-50
2021/11/01 04:39:11;;;;;;;;;2.00;0.50;;;;;19.15;46.93;99747.09;5077846;27;51044;-49
2021/11/01 04:41:43;;;;;;;;;2.00;0.00;;;;;19.14;46.95;99735.28;5078247;27;50899;-47
2021/11/01 04:55:10;;;;;;;;;0.00;0.00;;;;;19.13;46.88;99727.28;5077992;28;51011;-43
2021/11/01 04:57:36;;;;;;;;;3.25;0.00;;;;;19.14;46.85;99745.44;5077950;27;51087;-46
2021/11/01 05:00:03;;;;;;;;;0.00;0.00;;;;;19.13;46.75;99744.59;5077651;27;51715;-43
2021/11/01 05:02:28;;;;;;;;;0.00;0.00;;;;;19.14;47.20;99753.66;5077669;27;51240;-49
2021/11/01 05:04:54;;;;;;;;;0.00;0.00;;;;;19.12;46.87;99742.94;5077542;27;50907;-50
2021/11/01 05:07:21;;;;;;;;;0.00;0.00;;;;;19.13;46.69;99752.81;5077598;27;51090;-47
2021/11/01 05:09:59;;;;;;;;;0.00;0.00;;;;;19.13;46.79;99744.59;5077372;27;51007;-48
2021/11/01 05:12:30;;;;;;;;;0.00;0.00;;;;;19.12;46.97;99742.94;5077270;27;51086;-48
2021/11/01 05:20:22;;;;;;;;;0.00;0.00;;;;;19.12;46.85;99753.91;5077125;27;51857;-46
2021/11/01 05:25:32;;;;;;;;;0.00;0.00;;;;;19.12;46.95;99748.41;5077557;27;51083;-50
2021/11/01 05:30:36;;;;;;;;;0.00;0.00;;;;;19.12;46.85;99753.06;4993775;28;51850;-46
2021/11/01 05:35:28;;;;;;;;;0.00;0.00;;;;;19.12;46.77;99750.31;4993884;28;51136;-48
2021/11/01 05:37:53;;;;;;;;;0.25;0.25;;;;;19.12;46.59;99756.66;4994154;28;51267;-46
2021/11/01 05:40:19;;;;;;;;;1.00;0.25;;;;;19.11;46.87;99757.72;4994025;28;51080;-46
2021/11/01 05:42:45;;;;;;;;;0.00;0.00;;;;;19.12;46.89;99758.56;4993892;28;51184;-44
2021/11/01 05:45:11;;;;;;;;;0.00;0.00;;;;;19.11;46.94;99748.66;4993998;28;50985;-43
2021/11/01 05:47:36;;;;;;;;;0.50;0.50;;;;;19.12;46.78;99758.56;4994252;28;50944;-43
2021/11/01 05:50:04;;;;;;;;;0.00;0.00;;;;;19.11;46.58;99752.25;4993448;28;51014;-45
2021/11/01 05:52:31;;;;;;;;;0.00;0.00;;;;;19.11;46.65;99757.72;4993782;28;50983;-46
2021/11/01 05:55:04;;;;;;;;;0.75;0.75;;;;;19.11;46.91;99767.88;4994007;28;51009;-46
2021/11/01 05:57:44;;;;;;;;;0.75;0.00;;;;;19.11;46.71;99778.84;4993926;28;51294;-42
2021/11/01 06:02:58;;;;;;;;;0.00;0.00;;;;;19.10;46.58;99779.94;4993800;28;51100;-47
2021/11/01 06:05:42;;;;;;;;;0.00;0.00;;;;;19.10;46.67;99789.00;4993465;28;51166;-46
2021/11/01 06:13:25;;;;;;;;;0.00;0.00;;;;;19.10;46.70;99793.66;4993422;28;51541;-47
2021/11/01 06:13:37;;;;;;;;;0.00;0.00;;;;;19.09;46.78;99781.84;4993547;28;51327;-49
2021/11/01 06:16:03;;;;;;;;;1.00;0.00;;;;;19.08;46.84;99779.34;4993594;28;51240;-50
2021/11/01 06:18:35;;;;;;;;;0.75;0.00;;;;;19.08;46.88;99780.19;4992490;28;50956;-45
2021/11/01 06:21:14;;;;;;;;;0.00;0.00;;;;;19.09;46.73;99779.09;4993173;28;52762;-46
2021/11/01 06:23:40;;;;;;;;;0.75;0.75;;;;;19.09;46.74;99779.09;4993634;28;51322;-46
2021/11/01 06:26:06;;;;;;;;;0.00;0.00;;;;;19.10;46.69;99788.16;5003375;27;51183;-45
2021/11/01 06:28:31;;;;;;;;;0.00;0.00;;;;;19.09;46.75;99786.50;5076684;27;51232;-46
2021/11/01 06:31:10;;;;;;;;;0.00;0.00;;;;;19.09;46.71;99798.31;5076050;27;51887;-48
2021/11/01 06:49:50;;;;;;;;;1.00;0.00;;;;;19.07;46.81;99792.22;5075887;28;51092;-44
2021/11/01 07:19:13;;;;;;;;;0.00;0.00;;;;;19.04;46.68;99796.25;5075232;28;51307;-49
2021/11/01 07:21:49;;;;;;;;;0.00;0.00;;;;;19.04;46.75;99796.25;5074375;28;51236;-52
2021/11/01 07:38:40;;;;;;;;;0.00;0.00;;;;;19.03;46.75;99791.84;4995492;28;51406;-46
2021/11/01 08:29:57;;;;;;;;;1.75;0.50;;;;;19.01;46.72;99840.66;5078194;27;51075;-45
2021/11/01 09:04:15;;;;;;;;;0.00;0.00;;;;;19.00;46.73;99844.47;5075849;28;51167;-43
2021/11/01 09:20:20;;;;;;;;;1.50;1.00;;;;;19.04;46.54;99831.13;5077464;28;51058;-48
2021/11/01 09:36:33;;;;;;;;;0.00;0.00;;;;;19.13;46.68;99821.47;4954946;28;50956;-47
2021/11/01 09:41:29;;;;;;;;;0.00;0.00;;;;;19.16;46.51;99826.47;4954932;28;50987;-46
2021/11/01 09:43:57;;;;;;;;;0.50;0.50;;;;;19.17;46.47;99821.81;4954409;28;50880;-43
2021/11/01 09:46:24;;;;;;;;;2.00;0.25;;;;;19.18;46.62;99832.56;4954382;28;51153;-43
2021/11/01 09:48:59;;;;;;;;;2.25;1.50;;;;;19.20;46.61;99824.94;4952952;28;51067;-45
2021/11/01 09:51:24;;;;;;;;;0.00;0.00;;;;;19.21;46.50;99834.00;4954181;28;51055;-46
2021/11/01 09:53:50;;;;;;;;;1.00;1.00;;;;;19.22;46.43;99833.75;4952810;28;51018;-47
2021/11/01 09:56:30;;;;;;;;;0.00;0.00;;;;;19.24;46.27;99828.84;4954131;28;50983;-47
2021/11/01 09:59:11;;;;;;;;;0.75;0.75;;;;;19.26;46.27;99837.69;4954652;28;51198;-49
2021/11/01 10:01:42;;;;;;;;;1.00;1.00;;;;;19.28;46.36;99824.59;4954558;28;51090;-47
2021/11/01 10:04:27;;;;;;;;;0.25;0.25;;;;;19.30;46.14;99825.16;4953537;28;52030;-46
2021/11/01 10:07:53;;;;;;;;;4.00;1.00;;;;;19.31;46.16;99832.34;4954296;28;51309;-47
2021/11/01 10:09:56;;;;;;;;;3.50;1.00;;;;;19.32;46.24;99831.25;4953236;28;51252;-47
2021/11/01 10:12:34;;;;;;;;;0.50;0.50;;;;;19.33;46.16;99827.44;4954622;28;51070;-45
2021/11/01 10:17:33;;;;;;;;;1.00;1.00;;;;;19.36;45.98;99833.50;4953933;28;51192;-46
2021/11/01 10:18:17;;;;;;;;;0.75;0.75;;;;;19.36;46.17;99834.34;4953609;28;51121;-48
2021/11/01 10:20:56;;;;;;;;;0.25;0.25;;;;;19.38;46.13;99834.09;4954297;28;50978;-45
2021/11/01 10:23:33;;;;;;;;;1.25;1.00;;;;;19.39;45.92;99831.16;4954551;28;51026;-45
2021/11/01 10:26:12;;;;;;;;;2.00;1.00;;;;;19.40;46.27;99832.81;4956262;28;51208;-45
2021/11/01 10:28:38;;;;;;;;;0.00;0.00;;;;;19.41;46.00;99834.47;4992558;28;50980;-47
2021/11/01 10:31:22;;;;;;;;;0.00;0.00;;;;;19.41;46.04;99828.16;4993429;28;51160;-46
2021/11/01 10:33:49;;;;;;;;;1.00;1.00;;;;;19.42;45.91;99829.81;4993152;28;51104;-45
2021/11/01 10:36:28;;;;;;;;;0.00;0.00;;;;;19.43;46.10;99840.56;4992910;28;51434;-46
2021/11/01 10:38:59;;;;;;;;;0.25;0.25;;;;;19.43;45.83;99837.81;4992803;28;51327;-44
2021/11/01 10:44:38;;;;;;;;;0.00;0.00;;;;;19.45;45.92;99832.91;4993098;28;51267;-46
2021/11/01 11:14:04;;;;;;;;;0.00;0.00;;;;;19.50;45.79;99788.25;4992546;28;51135;-48
2021/11/01 11:27:14;;;;;;;;;0.25;0.25;;;;;19.50;45.79;99782.78;5025209;28;50910;-49
2021/11/01 11:48:31;;;;;;;;;1.25;0.75;;;;;19.47;45.74;99794.22;5074576;28;51070;-49
2021/11/01 11:51:05;;;;;;;;;1.00;0.25;;;;;19.47;45.76;99796.97;5074296;27;51874;-47
2021/11/01 11:53:31;;;;;;;;;2.00;2.00;;;;;19.45;45.49;99786.22;5074625;27;51311;-50
2021/11/01 11:56:08;;;;;;;;;0.00;0.00;;;;;19.46;45.47;99787.88;5074464;27;51059;-45
2021/11/01 11:58:42;;;;;;;;;1.00;1.00;;;;;19.47;45.55;99795.06;5074282;28;51873;-45
2021/11/01 12:01:36;;;;;;;;;0.00;0.00;;;;;19.47;45.84;99789.56;5073964;27;51978;-44
2021/11/01 12:04:06;;;;;;;;;0.25;0.25;;;;;19.48;45.44;99785.72;5073880;27;51354;-49
2021/11/01 12:07:00;;;;;;;;;0.00;0.00;;;;;19.49;45.60;99783.84;5074381;27;50981;-47
2021/11/01 12:09:40;;;;;;;;;0.00;0.00;;;;;19.49;45.51;99776.44;5073398;27;51148;-48
2021/11/01 12:17:19;;;;;;;;;0.50;0.50;;;;;19.49;45.60;99770.94;5077574;27;51182;-47
2021/11/01 12:19:45;;;;;;;;;1.75;0.25;;;;;19.49;45.58;99765.47;5077524;27;51209;-45
2021/11/01 12:22:21;;;;;;;;;0.00;0.00;;;;;19.49;45.62;99767.38;5077133;28;51589;-46
2021/11/01 12:24:48;;;;;;;;;0.00;0.00;;;;;19.50;45.59;99760.81;5076076;27;51406;-46
2021/11/01 12:27:16;;;;;;;;;0.00;0.00;;;;;19.50;45.52;99763.53;5028532;27;51058;-46
2021/11/01 12:29:43;;;;;;;;;2.25;0.75;;;;;19.49;45.53;99754.47;4994453;28;51103;-44
2021/11/01 12:32:12;;;;;;;;;1.75;1.00;;;;;19.49;45.39;99748.97;4993817;28;52724;-50
2021/11/01 12:34:52;;;;;;;;;0.00;0.00;;;;;19.49;45.55;99754.47;4993577;28;51356;-49
2021/11/01 12:37:21;;;;;;;;;2.00;0.00;;;;;19.51;45.69;99756.97;4993933;28;51094;-45
2021/11/01 12:39:51;;;;;;;;;0.50;0.50;;;;;19.49;45.71;99743.50;4992737;28;50960;-47
2021/11/01 12:58:38;;;;;;;;;0.00;0.00;;;;;19.47;45.88;99734.63;4993770;28;51274;-43
2021/11/01 13:01:10;;;;;;;;;1.00;0.00;;;;;19.47;45.56;99726.38;4993995;28;50944;-49
2021/11/01 13:03:36;;;;;;;;;0.00;0.00;;;;;19.46;45.85;99721.97;4993219;28;52379;-44
2021/11/01 13:06:07;;;;;;;;;0.00;0.00;;;;;19.46;45.77;99719.22;4992113;28;51278;-44
2021/11/01 13:08:42;;;;;;;;;1.25;0.00;;;;;19.47;45.82;99725.56;4993638;28;51007;-43
2021/11/01 13:11:54;;;;;;;;;0.00;0.00;;;;;19.46;45.57;99710.16;4993647;28;51039;-44
2021/11/01 13:19:26;;;;;;;;;0.00;0.00;;;;;19.45;45.72;99708.50;4993253;28;51211;-46
2021/11/01 13:21:57;;;;;;;;;0.00;0.00;;;;;19.44;45.79;99693.94;4993570;28;51272;-47
2021/11/01 13:24:43;;;;;;;;;0.00;0.00;;;;;19.45;45.99;99686.53;4993534;28;52931;-50
2021/11/01 13:35:47;;;;;;;;;0.50;0.00;;;;;19.44;45.65;99688.44;5076003;28;51605;-48
2021/11/01 13:38:24;;;;;;;;;1.00;1.00;;;;;19.44;45.91;99682.09;5075947;27;51046;-47
2021/11/01 13:40:50;;;;;;;;;0.75;0.00;;;;;19.44;45.71;99691.19;5076648;27;51067;-48
2021/11/01 13:43:25;;;;;;;;;2.00;0.00;;;;;19.43;45.85;99681.28;5076447;27;51119;-48
2021/11/01 13:45:52;;;;;;;;;0.25;0.25;;;;;19.44;45.74;99677.44;5074042;27;53619;-48
2021/11/01 13:48:32;;;;;;;;;0.00;0.00;;;;;19.44;45.70;99669.22;5075662;27;51074;-49
2021/11/01 13:51:12;;;;;;;;;0.00;0.00;;;;;19.44;45.80;99671.13;5074829;28;51211;-44
2021/11/01 13:54:00;;;;;;;;;0.50;0.50;;;;;19.42;45.96;99665.03;5076320;27;50931;-51
2021/11/01 13:56:36;;;;;;;;;0.00;0.00;;;;;19.43;45.72;99685.94;5075489;27;51852;-50
2021/11/01 13:59:10;;;;;;;;;1.00;1.00;;;;;19.42;45.97;99704.31;5075590;27;51361;-46
2021/11/01 14:01:55;;;;;;;;;0.00;0.00;;;;;19.41;45.73;99713.66;5074636;28;51285;-43
2021/11/01 14:20:42;;;;;;;;;1.00;1.00;;;;;19.38;46.05;99705.88;5075458;28;51008;-45
2021/11/01 14:34:36;;;;;;;;;2.00;1.75;;;;;19.37;45.70;99687.72;4991328;28;51101;-44
2021/11/01 14:56:01;;;;;;;;;4.00;2.00;;;;;19.34;46.27;99765.09;4992219;28;51143;-45
2021/11/01 15:36:37;;;;;;;;;1.00;1.00;;;;;19.29;46.14;99707.34;5074844;27;51087;-47
2021/11/01 16:17:24;;;;;;;;;1.00;1.00;;;;;19.24;46.09;99719.03;5077524;28;51002;-43
2021/11/01 16:19:51;;;;;;;;;0.00;0.00;;;;;19.24;46.34;99713.53;5077478;27;51107;-45
2021/11/01 16:22:18;;;;;;;;;1.00;1.00;;;;;19.24;46.05;99721.78;5077616;27;51030;-49
2021/11/01 16:24:45;;;;;;;;;1.00;0.25;;;;;19.23;46.03;99719.28;5077211;27;52092;-44
2021/11/01 16:27:13;;;;;;;;;1.00;1.00;;;;;19.23;46.25;99711.03;5030054;27;51274;-47
2021/11/01 16:29:53;;;;;;;;;1.00;1.00;;;;;19.23;46.07;99711.88;4994052;28;50972;-49
2021/11/01 16:32:36;;;;;;;;;0.00;0.00;;;;;19.23;46.31;99722.88;4993906;28;51040;-48
2021/11/01 16:35:05;;;;;;;;;0.00;0.00;;;;;19.23;46.07;99716.53;4993227;28;51862;-46
2021/11/01 16:37:45;;;;;;;;;1.25;1.25;;;;;19.22;46.39;99717.63;4992108;28;51189;-48
2021/11/01 16:40:12;;;;;;;;;0.50;0.50;;;;;19.23;46.28;99719.28;4993604;28;51144;-46
2021/11/01 16:42:41;;;;;;;;;1.00;1.00;;;;;19.23;46.22;99724.78;4994363;28;51259;-48
2021/11/01 16:45:32;;;;;;;;;1.75;0.50;;;;;19.22;46.21;99718.44;4992185;28;52879;-47
2021/11/01 16:48:00;;;;;;;;;1.00;1.00;;;;;19.21;46.34;99727.75;4993424;28;51470;-49
2021/11/01 16:50:27;;;;;;;;;2.00;0.25;;;;;19.21;46.32;99735.16;4993347;28;51134;-49
2021/11/01 16:52:54;;;;;;;;;1.00;1.00;;;;;19.20;46.27;99728.00;4993597;28;51390;-45
2021/11/01 16:55:27;;;;;;;;;1.75;1.00;;;;;19.21;46.34;99732.41;4993286;28;51931;-49
2021/11/01 16:57:56;;;;;;;;;0.00;0.00;;;;;19.21;46.12;99743.41;4992867;28;51173;-43
2021/11/01 17:00:45;;;;;;;;;0.25;0.25;;;;;19.21;46.28;99729.69;4993449;28;51258;-48
2021/11/01 17:06:25;;;;;;;;;1.00;1.00;;;;;19.20;46.24;99744.47;4993087;28;51074;-46
2021/11/01 17:09:26;;;;;;;;;2.00;1.00;;;;;19.19;46.21;99754.63;4993210;28;51274;-49
2021/11/01 17:28:27;;;;;;;;;1.25;0.25;;;;;19.18;46.02;99743.88;4953939;28;51516;-46
2021/11/01 18:24:31;;;;;;;;;1.25;1.00;;;;;19.15;46.08;99761.66;4953981;28;52148;-47
2021/11/01 18:38:19;;;;;;;;;1.50;1.50;;;;;19.10;46.28;99790.91;4980399;28;52317;-45
2021/11/01 18:51:04;;;;;;;;;2.25;1.75;;;;;19.08;46.18;99784.84;4992780;28;51015;-45
2021/11/01 18:53:37;;;;;;;;;3.00;3.00;;;;;19.07;46.38;99784.00;4992448;28;51166;-45
2021/11/01 18:56:06;;;;;;;;;3.25;3.00;;;;;19.07;46.36;99792.22;4992214;28;51083;-48
2021/11/01 18:58:34;;;;;;;;;5.75;4.00;;;;;19.08;46.39;99787.56;4992020;28;51309;-44
2021/11/01 19:01:01;;;;;;;;;1.50;1.50;;;;;19.07;46.40;99783.13;4992466;28;51086;-47
2021/11/01 19:03:28;;;;;;;;;3.75;2.00;;;;;19.08;46.15;99790.31;4992108;28;51077;-47
2021/11/01 20:06:06;;;;;;;;;5.00;4.00;;;;;19.01;46.29;99774.78;5075041;27;50966;-48
2021/11/01 20:14:21;;;;;;;;;8.00;5.00;;;;;19.01;46.17;99766.56;5074592;28;51130;-48
2021/11/01 21:26:06;;;;;;;;;8.75;8.00;;;;;18.94;46.44;99756.75;5003779;28;50971;-45
2021/11/01 21:28:31;;;;;;;;;5.75;5.50;;;;;18.94;46.60;99751.28;5076824;27;51501;-46
2021/11/01 21:30:57;;;;;;;;;8.50;5.00;;;;;18.93;46.44;99755.94;5077237;27;50969;-47
2021/11/01 21:33:24;;;;;;;;;7.25;6.25;;;;;18.93;46.42;99755.94;5075506;28;51531;-44
2021/11/01 21:35:52;;;;;;;;;7.50;5.75;;;;;18.92;46.38;99751.53;5077038;27;51322;-48
2021/11/01 21:38:18;;;;;;;;;4.00;4.00;;;;;18.93;46.06;99752.34;5077001;27;51890;-44
2021/11/01 21:40:44;;;;;;;;;7.50;5.75;;;;;18.94;46.26;99743.03;5077221;27;50964;-45
2021/11/01 21:43:10;;;;;;;;;7.50;4.50;;;;;18.93;46.53;99739.47;5077209;27;51064;-48
2021/11/01 21:45:36;;;;;;;;;4.50;4.50;;;;;18.94;46.21;99734.81;5077503;27;50977;-45
2021/11/01 21:48:02;;;;;;;;;8.50;6.00;;;;;18.92;46.59;99732.31;5076492;27;50939;-45
2021/11/01 21:50:27;;;;;;;;;9.25;5.50;;;;;18.94;46.26;99734.81;5076896;27;50974;-47
2021/11/01 21:52:55;;;;;;;;;5.25;5.25;;;;;18.93;46.79;99733.97;5076115;28;51224;-43
2021/11/01 21:55:23;;;;;;;;;4.00;4.00;;;;;18.92;46.35;99721.34;5076902;27;51177;-48
2021/11/01 21:57:56;;;;;;;;;6.00;4.25;;;;;18.92;46.39;99723.25;5076049;27;51988;-48
2021/11/01 22:16:48;;;;;;;;;4.75;4.75;;;;;18.91;46.39;99711.44;5076714;28;51180;-47
2021/11/01 22:40:39;;;;;;;;;3.50;3.50;;;;;18.89;46.30;99710.84;4993102;28;51012;-48
2021/11/01 22:43:44;;;;;;;;;5.00;5.00;;;;;18.90;46.25;99703.44;4993137;28;51469;-43
2021/11/01 22:56:53;;;;;;;;;5.25;4.50;;;;;18.88;46.25;99686.38;4992786;28;51211;-46
2021/11/01 22:59:19;;;;;;;;;5.00;5.00;;;;;18.87;46.58;99688.31;4992359;28;50965;-46
2021/11/01 23:01:47;;;;;;;;;4.25;4.25;;;;;18.87;46.50;99682.81;4992577;28;51560;-50
2021/11/01 23:33:42;;;;;;;;;5.50;5.00;;;;;18.84;46.26;99672.28;5074662;28;51516;-50
2021/11/01 23:36:08;;;;;;;;;6.25;5.75;;;;;18.85;46.46;99668.47;5075393;27;51040;-49
2021/11/01 23:38:34;;;;;;;;;8.50;7.00;;;;;18.85;46.33;99670.38;5075626;27;51033;-46
2021/11/01 23:40:59;;;;;;;;;8.25;7.75;;;;;18.86;46.26;99670.16;5075403;27;50945;-48
2021/11/01 23:43:26;;;;;;;;;4.25;4.25;;;;;18.85;46.34;99668.47;5075313;27;51425;-44
2021/11/01 23:45:51;;;;;;;;;6.25;4.50;;;;;18.84;46.43;99658.56;5075227;27;51310;-48
2021/11/01 23:48:18;;;;;;;;;5.25;5.25;;;;;18.84;46.43;99664.06;5075238;28;51197;-47
2021/11/01 23:50:45;;;;;;;;;6.75;5.00;;;;;18.84;46.43;99657.75;5075955;28;51122;-47
2021/11/01 23:53:16;;;;;;;;;8.50;4.25;;;;;18.84;46.26;99661.31;5075121;28;51808;-45
2021/11/01 23:55:43;;;;;;;;;8.00;6.75;;;;;18.84;46.36;99661.31;5075137;27;51160;-49